< Typhoon 196821 1968 Season Typhoon 196823 >
Typhoon 196822 (JUDY)
General InformationTrack Information on Google Maps || Disaster Info.ResourceGoogle EarthGE AnimationAtom FeedGeoJSON
Detalied Best Track (Time Zone = UTC)
Year Month Day Hour Lat. Long. Pressure (hPa) Wind (kt) Class Image Chart
1968 10 21 00 9.0 169.0 1008 0 2 -- Chart
1968 10 21 06 10.0 167.6 1009 0 2 -- Chart
1968 10 21 12 11.0 166.9 1010 0 2 -- Chart
1968 10 21 18 12.1 166.0 1008 0 2 -- Chart
1968 10 22 00 13.0 165.0 1010 0 2 -- Chart
1968 10 22 06 13.3 164.4 1008 0 2 -- Chart
1968 10 22 12 13.6 163.6 1010 0 2 -- Chart
1968 10 22 18 13.8 162.9 1008 0 2 -- Chart
1968 10 23 00 13.9 162.0 1010 0 2 -- Chart
1968 10 23 06 14.0 161.4 1008 0 2 -- Chart
1968 10 23 12 14.0 160.6 1010 0 2 -- Chart
1968 10 23 18 14.0 160.0 1006 0 2 -- Chart
1968 10 24 00 14.0 159.5 1004 0 2 -- Chart
1968 10 24 06 13.7 158.3 1000 0 2 -- Chart
1968 10 24 12 13.2 156.9 990 0 9 -- Chart
1968 10 24 18 12.1 155.7 985 0 9 -- Chart
1968 10 25 00 11.2 155.0 975 0 9 -- Chart
1968 10 25 06 10.6 154.3 970 0 9 -- Chart
1968 10 25 12 10.5 152.9 965 0 9 -- Chart
1968 10 25 18 10.4 151.4 960 0 9 -- Chart
1968 10 26 00 10.4 150.3 955 0 9 -- Chart
1968 10 26 06 10.7 148.8 940 0 9 -- Chart
1968 10 26 12 11.1 147.4 940 0 9 -- Chart
1968 10 26 18 11.3 146.2 940 0 9 -- Chart
1968 10 27 00 11.8 144.9 940 0 9 -- Chart
1968 10 27 06 12.3 143.7 935 0 9 -- Chart
1968 10 27 12 12.6 142.4 940 0 9 -- Chart
1968 10 27 18 12.9 141.4 940 0 9 -- Chart
1968 10 28 00 13.4 140.3 935 0 9 -- Chart
1968 10 28 06 13.9 139.2 930 0 9 -- Chart
1968 10 28 12 14.3 138.3 930 0 9 -- Chart
1968 10 28 18 14.7 137.3 930 0 9 -- Chart
1968 10 29 00 15.5 136.5 930 0 9 -- Chart
1968 10 29 06 16.2 136.0 935 0 9 -- Chart
1968 10 29 12 16.9 135.6 940 0 9 -- Chart
1968 10 29 18 17.4 135.5 945 0 9 -- Chart
1968 10 30 00 17.8 135.5 950 0 9 -- Chart
1968 10 30 06 18.5 135.5 960 0 9 -- Chart
1968 10 30 12 19.3 135.7 965 0 9 -- Chart
1968 10 30 18 19.6 136.1 965 0 9 -- Chart
1968 10 31 00 20.4 136.5 970 0 9 -- Chart
1968 10 31 06 21.0 136.7 975 0 9 -- Chart
1968 10 31 12 21.4 137.4 975 0 9 -- Chart
1968 10 31 18 21.6 137.6 975 0 9 -- Chart
1968 11 1 00 21.8 138.0 980 0 9 -- Chart
1968 11 1 06 22.2 138.7 985 0 9 -- Chart
1968 11 1 12 22.3 139.2 985 0 9 -- Chart
1968 11 1 18 22.3 139.4 990 0 9 -- Chart
1968 11 2 00 22.2 139.5 990 0 2 -- Chart
1968 11 2 06 21.8 139.4 995 0 2 -- Chart
1968 11 2 12 21.3 139.4 996 0 2 -- Chart
1968 11 2 18 20.8 139.4 998 0 2 -- Chart
1968 11 3 00 20.4 139.4 998 0 2 -- Chart
1968 11 3 06 19.9 139.5 1000 0 2 -- Chart
1968 11 3 12 19.6 139.6 1000 0 2 -- Chart
1968 11 3 18 19.3 139.8 1002 0 2 -- Chart
1968 11 4 00 19.0 140.0 1004 0 2 -- Chart
1968 11 4 06 18.5 140.4 1004 0 2 -- Chart
1968 11 4 12 18.2 140.7 1008 0 2 -- Chart
Japan Meteorological Agency Best Track Data | Correction Date : 1989-06-01
< Typhoon 196821 1968 Season Typhoon 196823 >

Help